Clearfield, PA

8:48 PM EST on November 26, 2014 (GMT -0500)
University Park | Change Station
CLOSE
Current Station
Airport
Location: State College,
Elevation: 1240 ft
Nearby Weather Stations

Elev 1240 ft 40.85 °N, 77.84 °W | Updated 55 minutes ago

Snow
Snow
30 °F
Feels Like 30 °F
N
0
Wind Variable Wind from North

Today
High -- | Low -- °F
--% Chance of Precip.
Yesterday
High -- | Low -- °F
Precip. -- in
7:13 AM 4:47 PM
Waxing Crescent, 24% visible
Pressure 29.95 in
Visibility 4.0 miles
Clouds Scattered Clouds 1900 ft
Mostly Cloudy 3900 ft
Dew Point 30 °F
Humidity 100%
Rainfall 0.00 in
Snow Depth Not available.
UV 0 out of 12
Pollen .10 out of 12
Air Quality Not available.
Flu Activity Not available.
METAR KUNV 270053Z 00000KT 4SM -SN BR SCT019 BKN039 M01/M01 A2995

More Conditions Fewer Conditions

Pressure 29.95 in
Visibility 4.0 miles
Clouds Scattered Clouds 1900 ft
Mostly Cloudy 3900 ft
Dew Point 30 °F
Humidity 100%
Rainfall 0.00 in
Snow Depth Not available.
UV 0 out of 12
Pollen .10 out of 12
Air Quality Not available.
Flu Activity Not available.
METAR KUNV 270053Z 00000KT 4SM -SN BR SCT019 BKN039 M01/M01 A2995

More Conditions Fewer Conditions

10-Day Weather Forecast

Almanac

Astronomy

Nov. 26, 2014 Rise Set
Actual Time
Civil Twilight
Nautical Twilight
Astronomical Twilight
Moon
Length of Visible Light
Length of Day
Tomorrow will be .
, % of the Moon is Illuminated

Today's Extremes

State Highs State Lows

Community

WunderPhotos

Upload Photos

1,773,940 photos uploaded!

WunderBlogs® & News

Nearby

Air Quality

  Air Quality AQ Index Pollutant
Not available.

Snow Depth

Station Depth Elevation

Earthquake Activity

City Distance Mag. Time & Date
Minimum magnitude displayed is 2.5.

Coastal Water Temperatures

Place Temperature

Nearby Weather Stations